sensor_id;sensor_type;location;lat;lon;timestamp;pressure;altitude;pressure_sealevel;temperature;humidity
77685;BME280;66844;46.092;18.268;2023-11-19T00:00:12;99943.00;;;2.29;80.22
77685;BME280;66844;46.092;18.268;2023-11-19T00:00:45;99943.81;;;2.32;80.22
77685;BME280;66844;46.092;18.268;2023-11-19T00:01:24;99940.25;;;2.35;79.47
77685;BME280;66844;46.092;18.268;2023-11-19T00:01:56;99948.13;;;2.38;78.72
77685;BME280;66844;46.092;18.268;2023-11-19T00:02:29;99937.50;;;2.42;78.71
77685;BME280;66844;46.092;18.268;2023-11-19T00:03:01;99941.88;;;2.42;79.20
77685;BME280;66844;46.092;18.268;2023-11-19T00:03:33;99942.94;;;2.32;80.36
77685;BME280;66844;46.092;18.268;2023-11-19T00:04:06;99947.47;;;2.24;80.95
77685;BME280;66844;46.092;18.268;2023-11-19T00:04:40;99939.38;;;1.82;83.76
77685;BME280;66844;46.092;18.268;2023-11-19T00:05:12;99936.22;;;1.61;85.47
77685;BME280;66844;46.092;18.268;2023-11-19T00:05:44;99944.28;;;1.45;86.95
77685;BME280;66844;46.092;18.268;2023-11-19T00:06:16;99943.31;;;1.54;85.98
77685;BME280;66844;46.092;18.268;2023-11-19T00:06:48;99940.69;;;1.56;86.00
77685;BME280;66844;46.092;18.268;2023-11-19T00:07:20;99935.66;;;1.40;87.40
77685;BME280;66844;46.092;18.268;2023-11-19T00:07:55;99940.91;;;1.39;87.38
77685;BME280;66844;46.092;18.268;2023-11-19T00:08:26;99950.69;;;1.23;88.72
77685;BME280;66844;46.092;18.268;2023-11-19T00:08:58;99936.88;;;1.14;88.56
77685;BME280;66844;46.092;18.268;2023-11-19T00:09:32;99942.97;;;1.14;88.86
77685;BME280;66844;46.092;18.268;2023-11-19T00:10:04;99931.84;;;0.94;89.66
77685;BME280;66844;46.092;18.268;2023-11-19T00:10:38;99925.00;;;0.84;90.10
77685;BME280;66844;46.092;18.268;2023-11-19T00:11:10;99930.16;;;0.91;90.40
77685;BME280;66844;46.092;18.268;2023-11-19T00:11:42;99925.84;;;0.87;90.32
77685;BME280;66844;46.092;18.268;2023-11-19T00:12:25;99920.69;;;0.81;91.50
77685;BME280;66844;46.092;18.268;2023-11-19T00:12:57;99926.09;;;0.66;92.44
77685;BME280;66844;46.092;18.268;2023-11-19T00:13:29;99922.72;;;0.54;92.70
77685;BME280;66844;46.092;18.268;2023-11-19T00:14:00;99918.41;;;0.51;93.61
77685;BME280;66844;46.092;18.268;2023-11-19T00:14:33;99920.19;;;0.46;93.64
77685;BME280;66844;46.092;18.268;2023-11-19T00:15:06;99924.63;;;0.39;94.44
77685;BME280;66844;46.092;18.268;2023-11-19T00:15:43;99922.84;;;0.41;95.06
77685;BME280;66844;46.092;18.268;2023-11-19T00:16:16;99933.31;;;0.43;94.30
77685;BME280;66844;46.092;18.268;2023-11-19T00:16:48;99937.72;;;0.35;94.79
77685;BME280;66844;46.092;18.268;2023-11-19T00:17:22;99934.25;;;0.34;95.49
77685;BME280;66844;46.092;18.268;2023-11-19T00:17:54;99935.16;;;0.30;95.90
77685;BME280;66844;46.092;18.268;2023-11-19T00:18:30;99932.59;;;0.24;95.65
77685;BME280;66844;46.092;18.268;2023-11-19T00:19:02;99932.66;;;0.21;96.52
77685;BME280;66844;46.092;18.268;2023-11-19T00:19:36;99932.66;;;0.20;95.90
77685;BME280;66844;46.092;18.268;2023-11-19T00:20:08;99937.88;;;0.21;96.17
77685;BME280;66844;46.092;18.268;2023-11-19T00:20:40;99941.38;;;0.19;96.65
77685;BME280;66844;46.092;18.268;2023-11-19T00:21:12;99941.47;;;0.08;96.56
77685;BME280;66844;46.092;18.268;2023-11-19T00:21:44;99936.31;;;-0.03;97.76
77685;BME280;66844;46.092;18.268;2023-11-19T00:22:16;99937.22;;;-0.05;97.98
77685;BME280;66844;46.092;18.268;2023-11-19T00:22:48;99939.00;;;-0.10;98.54
77685;BME280;66844;46.092;18.268;2023-11-19T00:23:23;99936.41;;;-0.12;98.72
77685;BME280;66844;46.092;18.268;2023-11-19T00:23:55;99945.09;;;-0.10;98.61
77685;BME280;66844;46.092;18.268;2023-11-19T00:24:30;99945.13;;;-0.14;99.42
77685;BME280;66844;46.092;18.268;2023-11-19T00:25:04;99947.75;;;-0.13;98.84
77685;BME280;66844;46.092;18.268;2023-11-19T00:25:36;99953.81;;;-0.08;99.05
77685;BME280;66844;46.092;18.268;2023-11-19T00:26:10;99948.59;;;-0.11;99.62
77685;BME280;66844;46.092;18.268;2023-11-19T00:26:43;99939.91;;;-0.14;98.96
77685;BME280;66844;46.092;18.268;2023-11-19T00:27:15;99941.63;;;-0.15;99.86
77685;BME280;66844;46.092;18.268;2023-11-19T00:27:47;99953.84;;;-0.14;99.12
77685;BME280;66844;46.092;18.268;2023-11-19T00:28:19;99956.41;;;-0.06;98.96
77685;BME280;66844;46.092;18.268;2023-11-19T00:28:51;99963.34;;;-0.01;98.50
77685;BME280;66844;46.092;18.268;2023-11-19T00:29:24;99968.53;;;0.03;98.24
77685;BME280;66844;46.092;18.268;2023-11-19T00:29:56;99966.78;;;0.05;97.95
77685;BME280;66844;46.092;18.268;2023-11-19T00:30:28;99959.00;;;0.00;98.81
77685;BME280;66844;46.092;18.268;2023-11-19T00:31:00;99959.00;;;-0.05;99.21
77685;BME280;66844;46.092;18.268;2023-11-19T00:31:32;99951.19;;;-0.08;99.56
77685;BME280;66844;46.092;18.268;2023-11-19T00:32:05;99949.47;;;-0.12;99.40
77685;BME280;66844;46.092;18.268;2023-11-19T00:32:37;99956.44;;;-0.11;99.01
77685;BME280;66844;46.092;18.268;2023-11-19T00:33:10;99953.81;;;-0.09;98.79
77685;BME280;66844;46.092;18.268;2023-11-19T00:33:42;99948.59;;;-0.09;99.23
77685;BME280;66844;46.092;18.268;2023-11-19T00:34:17;99954.66;;;-0.07;99.80
77685;BME280;66844;46.092;18.268;2023-11-19T00:34:52;99954.69;;;-0.10;99.55
77685;BME280;66844;46.092;18.268;2023-11-19T00:35:24;99952.09;;;-0.12;99.94
77685;BME280;66844;46.092;18.268;2023-11-19T00:35:56;99957.28;;;-0.10;99.30
77685;BME280;66844;46.092;18.268;2023-11-19T00:36:28;99954.72;;;-0.12;99.19
77685;BME280;66844;46.092;18.268;2023-11-19T00:37:00;99951.19;;;-0.11;100.00
77685;BME280;66844;46.092;18.268;2023-11-19T00:37:32;99952.06;;;-0.10;99.11
77685;BME280;66844;46.092;18.268;2023-11-19T00:38:04;99953.84;;;-0.12;99.41
77685;BME280;66844;46.092;18.268;2023-11-19T00:38:36;99963.41;;;-0.11;99.99
77685;BME280;66844;46.092;18.268;2023-11-19T00:39:08;99961.69;;;-0.12;99.42
77685;BME280;66844;46.092;18.268;2023-11-19T00:39:41;99959.03;;;-0.11;99.29
77685;BME280;66844;46.092;18.268;2023-11-19T00:40:13;99961.66;;;-0.09;99.13
77685;BME280;66844;46.092;18.268;2023-11-19T00:40:48;99966.88;;;-0.11;99.47
77685;BME280;66844;46.092;18.268;2023-11-19T00:41:20;99966.00;;;-0.11;99.58
77685;BME280;66844;46.092;18.268;2023-11-19T00:41:52;99963.44;;;-0.17;99.37
77685;BME280;66844;46.092;18.268;2023-11-19T00:42:24;99961.66;;;-0.11;99.75
77685;BME280;66844;46.092;18.268;2023-11-19T00:42:56;99969.47;;;-0.06;99.98
77685;BME280;66844;46.092;18.268;2023-11-19T00:43:31;99952.03;;;-0.07;99.61
77685;BME280;66844;46.092;18.268;2023-11-19T00:44:03;99961.66;;;-0.11;99.42
77685;BME280;66844;46.092;18.268;2023-11-19T00:44:35;99944.25;;;-0.12;99.51
77685;BME280;66844;46.092;18.268;2023-11-19T00:45:07;99956.44;;;-0.08;99.88
77685;BME280;66844;46.092;18.268;2023-11-19T00:45:41;99959.03;;;-0.09;99.26
77685;BME280;66844;46.092;18.268;2023-11-19T00:46:14;99959.91;;;-0.10;99.04
77685;BME280;66844;46.092;18.268;2023-11-19T00:46:46;99959.88;;;-0.07;99.43
77685;BME280;66844;46.092;18.268;2023-11-19T00:47:18;99976.41;;;-0.02;99.44
77685;BME280;66844;46.092;18.268;2023-11-19T00:47:53;99965.97;;;-0.04;99.22
77685;BME280;66844;46.092;18.268;2023-11-19T00:48:25;99965.97;;;-0.04;99.87
77685;BME280;66844;46.092;18.268;2023-11-19T00:48:58;99959.88;;;-0.07;99.69
77685;BME280;66844;46.092;18.268;2023-11-19T00:49:32;99963.41;;;-0.08;99.70
77685;BME280;66844;46.092;18.268;2023-11-19T00:50:04;99969.50;;;-0.11;99.16
77685;BME280;66844;46.092;18.268;2023-11-19T00:50:37;99967.75;;;-0.09;99.07
77685;BME280;66844;46.092;18.268;2023-11-19T00:51:11;99972.09;;;-0.06;99.65
77685;BME280;66844;46.092;18.268;2023-11-19T00:51:43;99978.16;;;-0.03;99.88
77685;BME280;66844;46.092;18.268;2023-11-19T00:52:17;99979.94;;;-0.06;99.08
77685;BME280;66844;46.092;18.268;2023-11-19T00:52:50;99979.97;;;-0.08;99.25
77685;BME280;66844;46.092;18.268;2023-11-19T00:53:23;99986.91;;;-0.07;99.32
77685;BME280;66844;46.092;18.268;2023-11-19T00:53:54;99988.66;;;-0.06;99.62
77685;BME280;66844;46.092;18.268;2023-11-19T00:54:27;99987.81;;;-0.09;99.27
77685;BME280;66844;46.092;18.268;2023-11-19T00:54:59;99981.72;;;-0.08;99.81
77685;BME280;66844;46.092;18.268;2023-11-19T00:55:31;99985.16;;;-0.05;99.08
77685;BME280;66844;46.092;18.268;2023-11-19T00:56:03;99979.06;;;-0.05;99.05
77685;BME280;66844;46.092;18.268;2023-11-19T00:56:35;99980.00;;;-0.14;99.25
77685;BME280;66844;46.092;18.268;2023-11-19T00:57:07;99980.00;;;-0.14;99.90
77685;BME280;66844;46.092;18.268;2023-11-19T00:57:39;99974.75;;;-0.12;100.00
77685;BME280;66844;46.092;18.268;2023-11-19T00:58:11;99977.38;;;-0.14;100.00
77685;BME280;66844;46.092;18.268;2023-11-19T00:58:43;99974.75;;;-0.14;100.00
77685;BME280;66844;46.092;18.268;2023-11-19T00:59:15;99975.59;;;-0.09;99.96
77685;BME280;66844;46.092;18.268;2023-11-19T00:59:47;99977.34;;;-0.09;99.99
77685;BME280;66844;46.092;18.268;2023-11-19T01:00:19;99970.34;;;-0.07;99.94
77685;BME280;66844;46.092;18.268;2023-11-19T01:00:52;99965.97;;;-0.07;99.62
77685;BME280;66844;46.092;18.268;2023-11-19T01:01:24;99965.13;;;-0.06;99.36
77685;BME280;66844;46.092;18.268;2023-11-19T01:01:57;99963.44;;;-0.13;99.37
77685;BME280;66844;46.092;18.268;2023-11-19T01:02:29;99966.88;;;-0.11;100.00
77685;BME280;66844;46.092;18.268;2023-11-19T01:03:01;99967.75;;;-0.09;99.93
77685;BME280;66844;46.092;18.268;2023-11-19T01:03:33;99959.91;;;-0.10;99.96
77685;BME280;66844;46.092;18.268;2023-11-19T01:04:05;99961.72;;;-0.17;100.00
77685;BME280;66844;46.092;18.268;2023-11-19T01:04:37;99959.09;;;-0.15;100.00
77685;BME280;66844;46.092;18.268;2023-11-19T01:05:10;99961.69;;;-0.14;100.00
77685;BME280;66844;46.092;18.268;2023-11-19T01:05:45;99969.53;;;-0.12;100.00
77685;BME280;66844;46.092;18.268;2023-11-19T01:06:29;99966.94;;;-0.17;100.00
77685;BME280;66844;46.092;18.268;2023-11-19T01:07:02;99967.78;;;-0.15;99.78
77685;BME280;66844;46.092;18.268;2023-11-19T01:07:44;99965.19;;;-0.16;100.00
77685;BME280;66844;46.092;18.268;2023-11-19T01:08:16;99962.59;;;-0.16;100.00
77685;BME280;66844;46.092;18.268;2023-11-19T01:08:48;99964.28;;;-0.11;100.00
77685;BME280;66844;46.092;18.268;2023-11-19T01:09:20;99962.53;;;-0.09;100.00
77685;BME280;66844;46.092;18.268;2023-11-19T01:09:52;99965.16;;;-0.10;99.82
77685;BME280;66844;46.092;18.268;2023-11-19T01:10:24;99968.59;;;-0.07;99.73
77685;BME280;66844;46.092;18.268;2023-11-19T01:11:00;99960.75;;;-0.05;99.99
77685;BME280;66844;46.092;18.268;2023-11-19T01:11:32;99952.03;;;-0.06;99.36
77685;BME280;66844;46.092;18.268;2023-11-19T01:12:04;99952.06;;;-0.10;99.35
77685;BME280;66844;46.092;18.268;2023-11-19T01:12:36;99958.16;;;-0.10;100.00
77685;BME280;66844;46.092;18.268;2023-11-19T01:13:09;99955.59;;;-0.13;99.69
77685;BME280;66844;46.092;18.268;2023-11-19T01:13:42;99955.59;;;-0.14;100.00
77685;BME280;66844;46.092;18.268;2023-11-19T01:14:13;99948.66;;;-0.21;100.00
77685;BME280;66844;46.092;18.268;2023-11-19T01:14:45;99953.88;;;-0.18;100.00
77685;BME280;66844;46.092;18.268;2023-11-19T01:15:17;99965.19;;;-0.16;100.00
77685;BME280;66844;46.092;18.268;2023-11-19T01:15:52;99955.59;;;-0.17;100.00
77685;BME280;66844;46.092;18.268;2023-11-19T01:16:26;99969.56;;;-0.18;100.00
77685;BME280;66844;46.092;18.268;2023-11-19T01:16:58;99961.75;;;-0.24;100.00
77685;BME280;66844;46.092;18.268;2023-11-19T01:17:30;99968.72;;;-0.22;100.00
77685;BME280;66844;46.092;18.268;2023-11-19T01:18:03;99966.09;;;-0.22;100.00
77685;BME280;66844;46.092;18.268;2023-11-19T01:18:36;99966.97;;;-0.21;100.00
77685;BME280;66844;46.092;18.268;2023-11-19T01:19:08;99973.94;;;-0.20;100.00
77685;BME280;66844;46.092;18.268;2023-11-19T01:19:48;99973.94;;;-0.19;100.00
77685;BME280;66844;46.092;18.268;2023-11-19T01:20:22;99968.72;;;-0.19;100.00
77685;BME280;66844;46.092;18.268;2023-11-19T01:20:54;99969.56;;;-0.18;100.00
77685;BME280;66844;46.092;18.268;2023-11-19T01:21:25;99968.72;;;-0.20;100.00
77685;BME280;66844;46.092;18.268;2023-11-19T01:21:57;99966.06;;;-0.17;100.00
77685;BME280;66844;46.092;18.268;2023-11-19T01:22:29;99967.84;;;-0.21;100.00
77685;BME280;66844;46.092;18.268;2023-11-19T01:23:01;99964.38;;;-0.23;100.00
77685;BME280;66844;46.092;18.268;2023-11-19T01:23:34;99960.91;;;-0.23;100.00
77685;BME280;66844;46.092;18.268;2023-11-19T01:24:06;99963.53;;;-0.28;100.00
77685;BME280;66844;46.092;18.268;2023-11-19T01:24:41;99967.84;;;-0.22;100.00
77685;BME280;66844;46.092;18.268;2023-11-19T01:25:13;99966.09;;;-0.19;100.00
77685;BME280;66844;46.092;18.268;2023-11-19T01:25:45;99974.81;;;-0.20;100.00
77685;BME280;66844;46.092;18.268;2023-11-19T01:26:17;99977.41;;;-0.18;100.00
77685;BME280;66844;46.092;18.268;2023-11-19T01:26:49;99973.06;;;-0.21;100.00
77685;BME280;66844;46.092;18.268;2023-11-19T01:27:21;99968.72;;;-0.23;100.00
77685;BME280;66844;46.092;18.268;2023-11-19T01:27:53;99973.09;;;-0.25;100.00
77685;BME280;66844;46.092;18.268;2023-11-19T01:28:25;99973.97;;;-0.23;100.00
77685;BME280;66844;46.092;18.268;2023-11-19T01:28:57;99976.56;;;-0.20;100.00
77685;BME280;66844;46.092;18.268;2023-11-19T01:29:29;99977.41;;;-0.18;100.00
77685;BME280;66844;46.092;18.268;2023-11-19T01:30:01;99972.16;;;-0.18;100.00
77685;BME280;66844;46.092;18.268;2023-11-19T01:30:37;99966.09;;;-0.19;100.00
77685;BME280;66844;46.092;18.268;2023-11-19T01:31:09;99968.69;;;-0.17;100.00
77685;BME280;66844;46.092;18.268;2023-11-19T01:31:45;99967.84;;;-0.21;100.00
77685;BME280;66844;46.092;18.268;2023-11-19T01:32:18;99974.78;;;-0.17;100.00
77685;BME280;66844;46.092;18.268;2023-11-19T01:32:50;99978.25;;;-0.18;100.00
77685;BME280;66844;46.092;18.268;2023-11-19T01:33:22;99971.31;;;-0.19;100.00
77685;BME280;66844;46.092;18.268;2023-11-19T01:33:54;99969.56;;;-0.21;100.00
77685;BME280;66844;46.092;18.268;2023-11-19T01:34:26;99963.47;;;-0.20;100.00
77685;BME280;66844;46.092;18.268;2023-11-19T01:34:58;99963.47;;;-0.19;100.00
77685;BME280;66844;46.092;18.268;2023-11-19T01:35:30;99972.19;;;-0.20;100.00
77685;BME280;66844;46.092;18.268;2023-11-19T01:36:03;99967.88;;;-0.24;100.00
77685;BME280;66844;46.092;18.268;2023-11-19T01:36:35;99966.13;;;-0.23;100.00
77685;BME280;66844;46.092;18.268;2023-11-19T01:37:07;99969.56;;;-0.18;100.00
77685;BME280;66844;46.092;18.268;2023-11-19T01:37:44;99964.34;;;-0.20;100.00
77685;BME280;66844;46.092;18.268;2023-11-19T01:38:16;99953.91;;;-0.20;100.00
77685;BME280;66844;46.092;18.268;2023-11-19T01:38:48;99963.47;;;-0.20;100.00
77685;BME280;66844;46.092;18.268;2023-11-19T01:39:20;99960.88;;;-0.22;100.00
77685;BME280;66844;46.092;18.268;2023-11-19T01:39:52;99963.47;;;-0.19;100.00
77685;BME280;66844;46.092;18.268;2023-11-19T01:40:27;99956.50;;;-0.20;100.00
77685;BME280;66844;46.092;18.268;2023-11-19T01:40:59;99951.25;;;-0.18;100.00
77685;BME280;66844;46.092;18.268;2023-11-19T01:41:35;99951.28;;;-0.20;100.00
77685;BME280;66844;46.092;18.268;2023-11-19T01:42:08;99946.06;;;-0.26;100.00
77685;BME280;66844;46.092;18.268;2023-11-19T01:42:40;99948.69;;;-0.24;100.00
77685;BME280;66844;46.092;18.268;2023-11-19T01:43:31;99952.19;;;-0.24;100.00
77685;BME280;66844;46.092;18.268;2023-11-19T01:44:05;99949.56;;;-0.25;100.00
77685;BME280;66844;46.092;18.268;2023-11-19T01:44:38;99941.75;;;-0.28;100.00
77685;BME280;66844;46.092;18.268;2023-11-19T01:45:22;99953.91;;;-0.26;100.00
77685;BME280;66844;46.092;18.268;2023-11-19T01:45:58;99951.31;;;-0.23;100.00
77685;BME280;66844;46.092;18.268;2023-11-19T01:46:31;99951.31;;;-0.26;100.00
77685;BME280;66844;46.092;18.268;2023-11-19T01:47:06;99948.69;;;-0.24;100.00
77685;BME280;66844;46.092;18.268;2023-11-19T01:47:38;99946.94;;;-0.25;100.00
77685;BME280;66844;46.092;18.268;2023-11-19T01:48:10;99946.97;;;-0.27;100.00
77685;BME280;66844;46.092;18.268;2023-11-19T01:48:45;99946.06;;;-0.24;100.00
77685;BME280;66844;46.092;18.268;2023-11-19T01:49:19;99941.75;;;-0.28;100.00
77685;BME280;66844;46.092;18.268;2023-11-19T01:49:51;99942.63;;;-0.28;100.00
77685;BME280;66844;46.092;18.268;2023-11-19T01:50:24;99947.81;;;-0.25;100.00
77685;BME280;66844;46.092;18.268;2023-11-19T01:50:57;99946.09;;;-0.27;100.00
77685;BME280;66844;46.092;18.268;2023-11-19T01:51:32;99950.47;;;-0.26;100.00
77685;BME280;66844;46.092;18.268;2023-11-19T01:52:05;99948.69;;;-0.23;100.00
77685;BME280;66844;46.092;18.268;2023-11-19T01:52:37;99951.28;;;-0.21;100.00
77685;BME280;66844;46.092;18.268;2023-11-19T01:53:10;99939.06;;;-0.21;100.00
77685;BME280;66844;46.092;18.268;2023-11-19T01:53:43;99941.72;;;-0.25;100.00
77685;BME280;66844;46.092;18.268;2023-11-19T01:54:15;99940.84;;;-0.26;100.00
77685;BME280;66844;46.092;18.268;2023-11-19T01:54:49;99943.44;;;-0.21;100.00
77685;BME280;66844;46.092;18.268;2023-11-19T01:55:22;99937.38;;;-0.25;100.00
77685;BME280;66844;46.092;18.268;2023-11-19T01:55:54;99937.38;;;-0.23;100.00
77685;BME280;66844;46.092;18.268;2023-11-19T01:56:26;99934.72;;;-0.22;100.00
77685;BME280;66844;46.092;18.268;2023-11-19T01:56:59;99932.13;;;-0.23;100.00
77685;BME280;66844;46.092;18.268;2023-11-19T01:57:32;99929.50;;;-0.20;100.00
77685;BME280;66844;46.092;18.268;2023-11-19T01:58:04;99932.94;;;-0.17;100.00
77685;BME280;66844;46.092;18.268;2023-11-19T01:58:37;99936.44;;;-0.18;100.00
77685;BME280;66844;46.092;18.268;2023-11-19T01:59:11;99931.22;;;-0.18;100.00
77685;BME280;66844;46.092;18.268;2023-11-19T01:59:45;99934.72;;;-0.22;100.00
77685;BME280;66844;46.092;18.268;2023-11-19T02:00:18;99931.25;;;-0.24;100.00
77685;BME280;66844;46.092;18.268;2023-11-19T02:00:50;99929.50;;;-0.20;100.00
77685;BME280;66844;46.092;18.268;2023-11-19T02:01:23;99929.47;;;-0.17;100.00
77685;BME280;66844;46.092;18.268;2023-11-19T02:01:55;99933.81;;;-0.16;100.00
77685;BME280;66844;46.092;18.268;2023-11-19T02:02:31;99931.19;;;-0.15;100.00
77685;BME280;66844;46.092;18.268;2023-11-19T02:03:06;99934.69;;;-0.17;100.00
77685;BME280;66844;46.092;18.268;2023-11-19T02:03:40;99935.56;;;-0.18;100.00
77685;BME280;66844;46.092;18.268;2023-11-19T02:04:12;99929.47;;;-0.16;100.00
77685;BME280;66844;46.092;18.268;2023-11-19T02:04:49;99935.56;;;-0.15;100.00
77685;BME280;66844;46.092;18.268;2023-11-19T02:05:21;99935.56;;;-0.17;100.00
77685;BME280;66844;46.092;18.268;2023-11-19T02:05:54;99932.06;;;-0.17;100.00
77685;BME280;66844;46.092;18.268;2023-11-19T02:06:28;99940.78;;;-0.14;100.00
77685;BME280;66844;46.092;18.268;2023-11-19T02:07:00;99933.78;;;-0.15;100.00
77685;BME280;66844;46.092;18.268;2023-11-19T02:07:32;99943.38;;;-0.14;100.00
77685;BME280;66844;46.092;18.268;2023-11-19T02:08:04;99939.03;;;-0.13;100.00
77685;BME280;66844;46.092;18.268;2023-11-19T02:08:37;99938.16;;;-0.12;100.00
77685;BME280;66844;46.092;18.268;2023-11-19T02:09:10;99938.16;;;-0.14;100.00
77685;BME280;66844;46.092;18.268;2023-11-19T02:09:43;99936.41;;;-0.13;100.00
77685;BME280;66844;46.092;18.268;2023-11-19T02:10:15;99942.50;;;-0.13;100.00
77685;BME280;66844;46.092;18.268;2023-11-19T02:10:48;99936.47;;;-0.22;100.00
77685;BME280;66844;46.092;18.268;2023-11-19T02:11:20;99937.34;;;-0.20;100.00
77685;BME280;66844;46.092;18.268;2023-11-19T02:11:53;99937.41;;;-0.26;100.00
77685;BME280;66844;46.092;18.268;2023-11-19T02:12:26;99939.16;;;-0.31;100.00
77685;BME280;66844;46.092;18.268;2023-11-19T02:13:01;99934.84;;;-0.38;100.00
77685;BME280;66844;46.092;18.268;2023-11-19T02:13:37;99928.75;;;-0.39;100.00
77685;BME280;66844;46.092;18.268;2023-11-19T02:14:10;99931.34;;;-0.36;100.00
77685;BME280;66844;46.092;18.268;2023-11-19T02:14:42;99917.44;;;-0.38;100.00
77685;BME280;66844;46.092;18.268;2023-11-19T02:15:14;99923.53;;;-0.37;100.00
77685;BME280;66844;46.092;18.268;2023-11-19T02:15:46;99916.59;;;-0.44;100.00
77685;BME280;66844;46.092;18.268;2023-11-19T02:16:18;99918.34;;;-0.45;100.00
77685;BME280;66844;46.092;18.268;2023-11-19T02:16:50;99912.22;;;-0.42;100.00
77685;BME280;66844;46.092;18.268;2023-11-19T02:17:30;99915.72;;;-0.43;100.00
77685;BME280;66844;46.092;18.268;2023-11-19T02:18:25;99906.16;;;-0.46;100.00
77685;BME280;66844;46.092;18.268;2023-11-19T02:18:59;99901.81;;;-0.50;100.00
77685;BME280;66844;46.092;18.268;2023-11-19T02:19:31;99900.09;;;-0.50;100.00
77685;BME280;66844;46.092;18.268;2023-11-19T02:20:04;99900.09;;;-0.51;100.00
77685;BME280;66844;46.092;18.268;2023-11-19T02:20:41;99905.28;;;-0.46;100.00
77685;BME280;66844;46.092;18.268;2023-11-19T02:21:13;99899.22;;;-0.48;100.00
77685;BME280;66844;46.092;18.268;2023-11-19T02:21:46;99899.19;;;-0.47;100.00
77685;BME280;66844;46.092;18.268;2023-11-19T02:22:18;99894.84;;;-0.45;100.00
77685;BME280;66844;46.092;18.268;2023-11-19T02:22:50;99894.84;;;-0.45;100.00
77685;BME280;66844;46.092;18.268;2023-11-19T02:23:23;99887.88;;;-0.46;100.00
77685;BME280;66844;46.092;18.268;2023-11-19T02:23:55;99892.22;;;-0.45;100.00
77685;BME280;66844;46.092;18.268;2023-11-19T02:24:40;99894.81;;;-0.43;100.00
77685;BME280;66844;46.092;18.268;2023-11-19T02:25:27;99896.53;;;-0.41;100.00
77685;BME280;66844;46.092;18.268;2023-11-19T02:26:12;99895.69;;;-0.41;100.00
77685;BME280;66844;46.092;18.268;2023-11-19T02:27:02;99890.44;;;-0.43;100.00
77685;BME280;66844;46.092;18.268;2023-11-19T02:28:13;99887.84;;;-0.43;100.00
77685;BME280;66844;46.092;18.268;2023-11-19T02:28:38;99887.91;;;-0.49;100.00
77685;BME280;66844;46.092;18.268;2023-11-19T02:29:11;99884.38;;;-0.48;100.00
77685;BME280;66844;46.092;18.268;2023-11-19T02:29:43;99879.16;;;-0.45;100.00
77685;BME280;66844;46.092;18.268;2023-11-19T02:30:15;99883.50;;;-0.45;100.00
77685;BME280;66844;46.092;18.268;2023-11-19T02:30:47;99887.84;;;-0.44;100.00
77685;BME280;66844;46.092;18.268;2023-11-19T02:31:19;99882.63;;;-0.47;100.00
77685;BME280;66844;46.092;18.268;2023-11-19T02:31:52;99887.88;;;-0.47;100.00
77685;BME280;66844;46.092;18.268;2023-11-19T02:32:27;99880.03;;;-0.46;100.00
77685;BME280;66844;46.092;18.268;2023-11-19T02:32:59;99878.31;;;-0.48;100.00
77685;BME280;66844;46.092;18.268;2023-11-19T02:33:37;99873.97;;;-0.50;100.00
77685;BME280;66844;46.092;18.268;2023-11-19T02:34:12;99883.53;;;-0.48;100.00
77685;BME280;66844;46.092;18.268;2023-11-19T02:34:44;99877.44;;;-0.49;100.00
77685;BME280;66844;46.092;18.268;2023-11-19T02:35:16;99880.91;;;-0.52;100.00
77685;BME280;66844;46.092;18.268;2023-11-19T02:35:48;99885.28;;;-0.49;100.00
77685;BME280;66844;46.092;18.268;2023-11-19T02:36:20;99882.63;;;-0.46;100.00
77685;BME280;66844;46.092;18.268;2023-11-19T02:36:53;99888.75;;;-0.45;100.00
77685;BME280;66844;46.092;18.268;2023-11-19T02:37:25;99886.13;;;-0.45;100.00
77685;BME280;66844;46.092;18.268;2023-11-19T02:37:58;99886.97;;;-0.43;100.00
77685;BME280;66844;46.092;18.268;2023-11-19T02:38:35;99878.25;;;-0.44;100.00
77685;BME280;66844;46.092;18.268;2023-11-19T02:39:08;99880.84;;;-0.41;100.00
77685;BME280;66844;46.092;18.268;2023-11-19T02:39:43;99881.75;;;-0.42;100.00
77685;BME280;66844;46.092;18.268;2023-11-19T02:40:15;99878.25;;;-0.44;100.00
77685;BME280;66844;46.092;18.268;2023-11-19T02:40:48;99878.25;;;-0.44;100.00
77685;BME280;66844;46.092;18.268;2023-11-19T02:41:20;99881.75;;;-0.43;100.00
77685;BME280;66844;46.092;18.268;2023-11-19T02:41:52;99879.13;;;-0.43;100.00
77685;BME280;66844;46.092;18.268;2023-11-19T02:42:24;99876.50;;;-0.43;100.00
77685;BME280;66844;46.092;18.268;2023-11-19T02:42:56;99873.94;;;-0.45;100.00
77685;BME280;66844;46.092;18.268;2023-11-19T02:43:29;99874.78;;;-0.43;100.00
77685;BME280;66844;46.092;18.268;2023-11-19T02:44:08;99873.91;;;-0.42;100.00
77685;BME280;66844;46.092;18.268;2023-11-19T02:44:44;99865.22;;;-0.45;100.00
77685;BME280;66844;46.092;18.268;2023-11-19T02:45:16;99866.09;;;-0.48;100.00
77685;BME280;66844;46.092;18.268;2023-11-19T02:45:48;99870.44;;;-0.45;100.00
77685;BME280;66844;46.092;18.268;2023-11-19T02:46:20;99869.59;;;-0.51;100.00
77685;BME280;66844;46.092;18.268;2023-11-19T02:46:52;99871.34;;;-0.51;100.00
77685;BME280;66844;46.092;18.268;2023-11-19T02:47:24;99873.13;;;-0.53;100.00
77685;BME280;66844;46.092;18.268;2023-11-19T02:47:56;99872.25;;;-0.54;100.00
77685;BME280;66844;46.092;18.268;2023-11-19T02:48:28;99876.59;;;-0.54;100.00
77685;BME280;66844;46.092;18.268;2023-11-19T02:49:00;99870.50;;;-0.55;100.00
77685;BME280;66844;46.092;18.268;2023-11-19T02:49:32;99872.22;;;-0.51;100.00
77685;BME280;66844;46.092;18.268;2023-11-19T02:50:04;99873.94;;;-0.51;100.00
77685;BME280;66844;46.092;18.268;2023-11-19T02:50:38;99878.31;;;-0.48;100.00
77685;BME280;66844;46.092;18.268;2023-11-19T02:51:10;99873.94;;;-0.48;100.00
77685;BME280;66844;46.092;18.268;2023-11-19T02:51:42;99867.81;;;-0.44;100.00
77685;BME280;66844;46.092;18.268;2023-11-19T02:52:15;99870.41;;;-0.44;100.00
77685;BME280;66844;46.092;18.268;2023-11-19T02:52:47;99871.31;;;-0.45;100.00
77685;BME280;66844;46.092;18.268;2023-11-19T02:53:20;99873.03;;;-0.42;100.00